Time;durP1;ratioP1;P1;durP2;ratioP2;P2;SDS_P1;SDS_P2;PMS_P1;PMS_P2;Temp;Humidity;BMP_temperature;BMP_pressure;BME280_temperature;BME280_humidity;BME280_pressure;Samples;Min_cycle;Max_cycle;Signal;HPM_P1;HPM_P2
2024/04/08 00:00:46;;;;;;;6.88;1.77;;;16.80;99.90;;;;;;5056064;28;20742;-69
2024/04/08 00:03:12;;;;;;;3.78;2.00;;;16.70;99.90;;;;;;5056563;28;20210;-69
2024/04/08 00:05:38;;;;;;;5.15;1.88;;;16.60;99.90;;;;;;5055876;28;20232;-69
2024/04/08 00:08:05;;;;;;;4.97;2.13;;;16.50;99.90;;;;;;5055769;28;20553;-69
2024/04/08 00:10:32;;;;;;;7.35;2.42;;;16.40;99.90;;;;;;5056673;28;20204;-69
2024/04/08 00:12:57;;;;;;;3.42;2.08;;;16.40;99.90;;;;;;5058876;28;20232;-70
2024/04/08 00:15:26;;;;;;;6.15;2.30;;;16.30;99.90;;;;;;5056702;28;20636;-68
2024/04/08 00:17:52;;;;;;;3.85;1.55;;;16.20;99.90;;;;;;5055988;28;20265;-68
2024/04/08 00:20:19;;;;;;;7.53;2.20;;;16.10;99.90;;;;;;5055956;28;20208;-68
2024/04/08 00:22:50;;;;;;;7.20;2.20;;;16.00;99.90;;;;;;5056266;28;20204;-68
2024/04/08 00:25:17;;;;;;;4.88;2.28;;;15.90;99.90;;;;;;5056018;28;20652;-68
2024/04/08 00:27:43;;;;;;;5.47;2.70;;;15.70;99.90;;;;;;5055923;28;20258;-68
2024/04/08 00:30:11;;;;;;;6.70;1.95;;;15.50;99.90;;;;;;5055561;28;20235;-68
2024/04/08 00:32:38;;;;;;;10.63;2.65;;;15.40;99.90;;;;;;5055540;28;20315;-68
2024/04/08 00:35:05;;;;;;;5.72;2.38;;;15.30;99.90;;;;;;5055266;28;20225;-66
2024/04/08 00:37:31;;;;;;;6.60;2.55;;;15.00;99.90;;;;;;5055473;28;20222;-66
2024/04/08 00:39:58;;;;;;;8.75;2.65;;;14.90;99.90;;;;;;5056557;28;20634;-67
2024/04/08 00:42:24;;;;;;;8.45;2.30;;;14.90;99.90;;;;;;5055425;28;20251;-66
2024/04/08 00:44:51;;;;;;;4.00;2.40;;;14.90;99.90;;;;;;5054858;28;20259;-67
2024/04/08 00:47:17;;;;;;;4.07;2.20;;;15.00;99.90;;;;;;5055361;28;20214;-66
2024/04/08 00:49:46;;;;;;;6.28;2.20;;;15.00;99.90;;;;;;5056437;28;20208;-66
2024/04/08 00:52:13;;;;;;;6.25;2.55;;;15.00;99.90;;;;;;5055174;28;20242;-67
2024/04/08 00:54:40;;;;;;;7.70;2.15;;;15.00;99.90;;;;;;5055412;28;20305;-66
2024/04/08 00:57:09;;;;;;;4.82;2.38;;;15.00;99.90;;;;;;5055341;28;20208;-67
2024/04/08 00:59:36;;;;;;;8.27;2.78;;;14.90;99.90;;;;;;5055296;28;20204;-67
2024/04/08 01:02:04;;;;;;;4.18;2.00;;;14.90;99.90;;;;;;5057698;28;20625;-67
2024/04/08 01:04:32;;;;;;;4.32;2.35;;;14.90;99.90;;;;;;5054847;28;20316;-67
2024/04/08 01:06:59;;;;;;;4.97;2.42;;;14.80;99.90;;;;;;5055097;28;20582;-68
2024/04/08 01:09:27;;;;;;;9.25;2.90;;;14.80;99.90;;;;;;5055566;28;20231;-69
2024/04/08 01:11:53;;;;;;;10.25;2.88;;;14.80;99.90;;;;;;5055642;28;20295;-69
2024/04/08 01:14:20;;;;;;;7.18;3.35;;;14.90;99.90;;;;;;5054868;28;20224;-68
2024/04/08 01:16:45;;;;;;;7.55;2.15;;;14.90;99.90;;;;;;5054969;28;20295;-68
2024/04/08 01:19:18;;;;;;;7.68;2.58;;;14.90;99.90;;;;;;5055036;28;20295;-68
2024/04/08 01:21:44;;;;;;;7.63;3.30;;;14.90;99.90;;;;;;5054859;28;20657;-68
2024/04/08 01:24:14;;;;;;;5.70;2.30;;;14.90;99.90;;;;;;5055023;28;20219;-68
2024/04/08 01:26:40;;;;;;;6.13;2.20;;;14.90;99.90;;;;;;5054976;28;20299;-67
2024/04/08 01:29:06;;;;;;;6.95;2.30;;;14.90;99.90;;;;;;5054400;28;20645;-67
2024/04/08 01:31:32;;;;;;;6.78;2.83;;;14.90;99.90;;;;;;5054227;28;20239;-67
2024/04/08 01:33:59;;;;;;;7.63;2.42;;;14.80;99.90;;;;;;5054152;28;20276;-67
2024/04/08 01:36:25;;;;;;;5.45;2.13;;;14.70;99.90;;;;;;5054367;28;20212;-67
2024/04/08 01:38:52;;;;;;;8.70;2.33;;;14.70;99.90;;;;;;5054671;28;20299;-67
2024/04/08 01:41:19;;;;;;;6.03;2.10;;;14.70;99.90;;;;;;5054244;28;20294;-67
2024/04/08 01:43:46;;;;;;;3.90;2.05;;;14.60;99.90;;;;;;5054364;28;20291;-67
2024/04/08 01:46:12;;;;;;;6.78;2.53;;;14.60;99.90;;;;;;5054237;28;20208;-67
2024/04/08 01:48:39;;;;;;;6.55;2.58;;;14.60;99.90;;;;;;5054175;28;20287;-67
2024/04/08 01:51:05;;;;;;;8.48;2.70;;;14.50;99.90;;;;;;5055555;28;20212;-66
2024/04/08 01:53:32;;;;;;;5.03;1.88;;;14.50;99.90;;;;;;5054069;28;20779;-66
2024/04/08 01:55:58;;;;;;;6.72;2.38;;;14.50;99.90;;;;;;5053840;28;20282;-66
2024/04/08 01:58:26;;;;;;;5.32;2.75;;;14.50;99.90;;;;;;5054178;28;20244;-66
2024/04/08 02:00:52;;;;;;;5.03;2.80;;;14.40;99.90;;;;;;5054003;28;20208;-67
2024/04/08 02:03:19;;;;;;;5.17;2.07;;;14.40;99.90;;;;;;5054904;28;20548;-67
2024/04/08 02:05:45;;;;;;;10.05;2.75;;;14.30;99.90;;;;;;5054077;28;20240;-67
2024/04/08 02:08:12;;;;;;;7.03;2.03;;;14.30;99.90;;;;;;5054571;28;20731;-67
2024/04/08 02:10:38;;;;;;;6.38;2.35;;;14.30;99.90;;;;;;5053650;28;20683;-67
2024/04/08 02:13:05;;;;;;;7.37;2.20;;;14.20;99.90;;;;;;5053875;28;20227;-67
2024/04/08 02:15:32;;;;;;;6.55;2.40;;;14.20;99.90;;;;;;5054562;28;20792;-67
2024/04/08 02:17:59;;;;;;;12.30;2.90;;;14.20;99.90;;;;;;5055360;28;20215;-67
2024/04/08 02:20:25;;;;;;;7.43;2.65;;;14.20;99.90;;;;;;5054406;28;20235;-67
2024/04/08 02:22:52;;;;;;;6.03;2.80;;;14.20;99.90;;;;;;5053332;28;20199;-67
2024/04/08 02:25:18;;;;;;;8.15;3.05;;;14.20;99.90;;;;;;5055148;28;20315;-67
2024/04/08 02:27:45;;;;;;;8.10;2.43;;;14.20;99.90;;;;;;5053672;28;20291;-67
2024/04/08 02:30:11;;;;;;;8.53;2.33;;;14.20;99.90;;;;;;5053574;28;20324;-67
2024/04/08 02:32:40;;;;;;;7.10;2.65;;;14.20;99.90;;;;;;5053599;28;20208;-67
2024/04/08 02:35:06;;;;;;;6.80;2.30;;;14.20;99.90;;;;;;5053815;28;20315;-67
2024/04/08 02:37:33;;;;;;;4.72;2.20;;;14.10;99.90;;;;;;5053456;28;20726;-67
2024/04/08 02:39:59;;;;;;;5.85;2.70;;;14.10;99.90;;;;;;5053680;28;20207;-67
2024/04/08 02:42:25;;;;;;;6.17;2.30;;;14.00;99.90;;;;;;5055280;28;20272;-67
2024/04/08 02:44:52;;;;;;;7.43;2.40;;;14.10;99.90;;;;;;5054052;28;20228;-67
2024/04/08 02:47:19;;;;;;;6.70;2.67;;;14.00;99.90;;;;;;5053433;28;20242;-67
2024/04/08 02:49:46;;;;;;;6.03;2.87;;;14.00;99.90;;;;;;5054585;28;20218;-66
2024/04/08 02:52:13;;;;;;;8.43;2.93;;;13.90;99.90;;;;;;5053394;28;20735;-66
2024/04/08 02:54:39;;;;;;;5.60;2.80;;;13.90;99.90;;;;;;5053287;28;20231;-66
2024/04/08 02:57:06;;;;;;;8.30;2.70;;;13.90;99.90;;;;;;5053940;28;20230;-68
2024/04/08 02:59:32;;;;;;;9.60;2.57;;;13.90;99.90;;;;;;5055861;28;20246;-67
2024/04/08 03:01:59;;;;;;;7.10;2.53;;;13.90;99.90;;;;;;5053806;28;20208;-69
2024/04/08 03:04:24;;;;;;;8.53;3.00;;;13.80;99.90;;;;;;5054083;28;20236;-69
2024/04/08 03:06:54;;;;;;;7.10;3.07;;;13.70;99.90;;;;;;5053411;28;20294;-69
2024/04/08 03:09:20;;;;;;;11.43;2.80;;;13.60;99.90;;;;;;5054768;28;20292;-69
2024/04/08 03:11:46;;;;;;;6.33;2.70;;;13.50;99.90;;;;;;5053604;28;20737;-68
2024/04/08 03:14:12;;;;;;;5.63;2.53;;;13.40;99.90;;;;;;5053416;28;20242;-68
2024/04/08 03:16:39;;;;;;;8.37;2.70;;;13.40;99.90;;;;;;5053659;28;20291;-68
2024/04/08 03:19:05;;;;;;;8.60;3.00;;;13.30;99.90;;;;;;5053522;28;20251;-69
2024/04/08 03:21:32;;;;;;;4.70;2.73;;;13.30;99.90;;;;;;5053417;28;20236;-69
2024/04/08 03:23:59;;;;;;;7.83;3.10;;;13.20;99.90;;;;;;5053063;28;20789;-68
2024/04/08 03:26:26;;;;;;;8.63;3.27;;;13.20;99.90;;;;;;5053403;28;20309;-69
2024/04/08 03:28:52;;;;;;;5.10;2.57;;;13.10;99.90;;;;;;5053635;28;20258;-69
2024/04/08 03:31:19;;;;;;;3.67;2.93;;;13.10;99.90;;;;;;5054773;28;20204;-69
2024/04/08 03:33:44;;;;;;;7.60;2.87;;;13.00;99.90;;;;;;5055851;28;20259;-68
2024/04/08 03:36:16;;;;;;;7.40;3.03;;;13.00;99.90;;;;;;5056677;28;20242;-69
2024/04/08 03:38:43;;;;;;;3.70;2.87;;;12.90;99.90;;;;;;5056662;28;20222;-68
2024/04/08 03:41:11;;;;;;;7.43;2.90;;;12.80;99.90;;;;;;5057168;28;20303;-69
2024/04/08 03:43:41;;;;;;;6.30;2.50;;;12.80;99.90;;;;;;5056339;28;20370;-69
2024/04/08 03:46:08;;;;;;;10.97;3.00;;;12.70;99.90;;;;;;5056469;28;20665;-69
2024/04/08 03:48:34;;;;;;;5.63;3.17;;;12.70;99.90;;;;;;5056696;28;20262;-69
2024/04/08 03:51:08;;;;;;;6.07;3.00;;;12.70;99.90;;;;;;5056413;28;20619;-69
2024/04/08 03:53:34;;;;;;;11.73;3.23;;;12.60;99.90;;;;;;5057654;28;20212;-69
2024/04/08 03:56:05;;;;;;;5.97;3.00;;;12.60;99.90;;;;;;5056198;28;20231;-69
2024/04/08 03:58:32;;;;;;;5.63;2.80;;;12.50;99.90;;;;;;5057146;28;20283;-69
2024/04/08 04:00:59;;;;;;;6.57;3.20;;;12.50;99.90;;;;;;5056335;28;20208;-69
2024/04/08 04:03:25;;;;;;;6.30;2.83;;;12.50;99.90;;;;;;5056494;28;20212;-69
2024/04/08 04:05:52;;;;;;;4.97;2.87;;;12.50;99.90;;;;;;5055860;28;20289;-66
2024/04/08 04:08:18;;;;;;;8.80;3.53;;;12.40;99.90;;;;;;5081342;22;20265;31
2024/04/08 04:10:45;;;;;;;7.37;3.83;;;12.40;99.90;;;;;;5034504;28;20681;-65
2024/04/08 04:13:11;;;;;;;11.17;3.40;;;12.30;99.90;;;;;;5035437;28;20319;-65
2024/04/08 04:15:39;;;;;;;9.93;3.13;;;12.30;99.90;;;;;;5035526;28;20213;-65
2024/04/08 04:18:05;;;;;;;6.57;2.60;;;12.30;99.90;;;;;;5035961;28;20251;-65
2024/04/08 04:20:40;;;;;;;6.43;2.97;;;12.30;99.90;;;;;;5035843;28;20225;-65
2024/04/08 04:23:06;;;;;;;7.03;3.77;;;12.20;99.90;;;;;;5035406;28;20192;-65
2024/04/08 04:25:33;;;;;;;5.70;2.87;;;12.20;99.90;;;;;;5035479;28;20209;-65
2024/04/08 04:28:00;;;;;;;7.60;3.30;;;12.10;99.90;;;;;;5035182;28;20291;-65
2024/04/08 04:32:25;;;;;;;6.97;2.97;;;12.00;99.90;;;;;;5583637;25;20573;-66
2024/04/08 04:34:51;;;;;;;7.30;2.80;;;11.90;99.90;;;;;;5584608;25;20204;-65
2024/04/08 04:37:20;;;;;;;7.30;3.23;;;11.90;99.90;;;;;;5584073;25;20270;-68
2024/04/08 04:39:46;;;;;;;7.73;3.30;;;11.90;99.90;;;;;;5585130;25;20269;-69
2024/04/08 04:42:15;;;;;;;8.97;4.33;;;11.90;99.90;;;;;;5584818;25;20315;-69
2024/04/08 04:44:41;;;;;;;11.00;3.87;;;11.80;99.90;;;;;;5584055;25;20212;-69
2024/04/08 04:47:10;;;;;;;6.97;4.57;;;11.80;99.90;;;;;;5583567;25;20685;-69
2024/04/08 04:49:39;;;;;;;6.67;3.60;;;11.80;99.90;;;;;;5583450;25;20228;-70
2024/04/08 04:52:08;;;;;;;8.40;4.53;;;11.70;99.90;;;;;;5585043;25;20320;-70
2024/04/08 04:54:34;;;;;;;9.77;2.87;;;11.70;99.90;;;;;;5587227;25;20756;-71
2024/04/08 04:57:05;;;;;;;9.83;2.83;;;11.80;99.90;;;;;;5588248;25;20221;-71
2024/04/08 04:59:31;;;;;;;4.93;2.80;;;11.90;99.90;;;;;;5588632;25;20709;-72
2024/04/08 05:02:00;;;;;;;6.67;3.17;;;11.90;99.90;;;;;;5587479;25;20224;-69
2024/04/08 05:04:26;;;;;;;8.80;4.40;;;11.90;99.90;;;;;;5583338;25;20220;-69
2024/04/08 05:06:57;;;;;;;14.03;7.80;;;11.90;99.90;;;;;;5583731;25;20224;-70
2024/04/08 05:09:23;;;;;;;8.40;4.67;;;11.80;99.90;;;;;;5583507;25;20729;-70
2024/04/08 05:11:51;;;;;;;9.77;4.30;;;11.80;99.90;;;;;;5583509;25;20255;-70
2024/04/08 05:14:17;;;;;;;9.87;4.87;;;11.80;99.90;;;;;;5583336;25;20221;-71
2024/04/08 05:16:47;;;;;;;7.80;3.87;;;11.80;99.90;;;;;;5583011;25;20213;-70
2024/04/08 05:19:13;;;;;;;7.77;3.73;;;11.90;99.90;;;;;;5583874;25;20714;-72
2024/04/08 05:21:43;;;;;;;5.50;3.40;;;11.90;99.90;;;;;;5583350;25;20244;-71
2024/04/08 05:24:11;;;;;;;8.43;3.67;;;11.90;99.90;;;;;;5583010;25;20209;-72
2024/04/08 05:26:40;;;;;;;7.80;3.53;;;11.90;99.90;;;;;;5583221;25;20255;-72
2024/04/08 05:29:06;;;;;;;7.80;3.20;;;11.90;99.90;;;;;;5582989;25;20331;-72
2024/04/08 05:31:34;;;;;;;8.83;3.50;;;11.90;99.90;;;;;;5582912;25;20744;-72
2024/04/08 05:34:00;;;;;;;10.30;3.70;;;11.90;99.90;;;;;;5583201;25;20328;-72
2024/04/08 05:36:29;;;;;;;7.70;3.23;;;11.90;99.90;;;;;;5583743;25;20218;-72
2024/04/08 05:38:55;;;;;;;7.17;2.80;;;12.00;99.90;;;;;;5582863;25;20224;-72
2024/04/08 05:41:26;;;;;;;6.57;3.40;;;12.00;99.90;;;;;;5580918;25;20248;-71
2024/04/08 05:43:52;;;;;;;15.00;6.00;;;12.00;99.90;;;;;;5565868;25;20313;-66
2024/04/08 05:46:20;;;;;;;23.40;18.47;;;12.00;99.90;;;;;;5566298;25;20686;-66
2024/04/08 05:48:46;;;;;;;34.17;25.07;;;12.00;99.90;;;;;;5566201;25;20285;-67
2024/04/08 05:51:15;;;;;;;52.73;40.23;;;12.10;99.90;;;;;;5566333;25;20221;-66
2024/04/08 05:53:41;;;;;;;37.40;28.50;;;12.20;99.90;;;;;;5566056;25;20213;-66
2024/04/08 05:56:09;;;;;;;13.50;7.77;;;12.30;99.90;;;;;;5566240;25;20217;-67
2024/04/08 05:58:38;;;;;;;15.10;9.40;;;12.40;99.90;;;;;;5566191;25;20256;-67
2024/04/08 06:01:06;;;;;;;13.47;6.00;;;12.50;99.90;;;;;;5566249;25;20225;-67
2024/04/08 06:03:32;;;;;;;10.57;4.27;;;12.60;99.90;;;;;;5566303;25;20322;-66
2024/04/08 06:06:01;;;;;;;10.60;4.63;;;12.70;99.90;;;;;;5566270;25;20214;-66
2024/04/08 06:08:27;;;;;;;11.03;4.80;;;12.70;99.90;;;;;;5566119;25;20224;-66
2024/04/08 06:10:56;;;;;;;13.83;9.07;;;12.80;99.90;;;;;;5566114;25;20325;-66
2024/04/08 06:13:22;;;;;;;12.53;5.93;;;12.90;99.90;;;;;;5565981;25;20213;-66
2024/04/08 06:15:53;;;;;;;9.17;4.30;;;12.90;99.90;;;;;;5566031;25;20229;-66
2024/04/08 06:18:19;;;;;;;9.40;3.60;;;12.90;99.90;;;;;;5566099;25;20248;-67
2024/04/08 06:20:55;;;;;;;6.60;3.70;;;12.90;99.90;;;;;;5565818;25;20709;-65
2024/04/08 06:23:21;;;;;;;6.43;3.20;;;13.00;99.90;;;;;;5565882;25;20209;-66
2024/04/08 06:25:50;;;;;;;8.77;3.07;;;13.10;99.90;;;;;;5565770;25;20289;-66
2024/04/08 06:28:16;;;;;;;6.83;3.17;;;13.20;99.90;;;;;;5565665;25;20244;-66
2024/04/08 06:30:44;;;;;;;7.40;3.20;;;13.30;99.90;;;;;;5565477;25;20217;-66
2024/04/08 06:33:13;;;;;;;5.57;2.90;;;13.30;99.90;;;;;;5565397;25;20672;-66
2024/04/08 06:35:45;;;;;;;8.33;3.30;;;13.50;99.90;;;;;;5565505;25;20214;-66
2024/04/08 06:38:13;;;;;;;7.87;3.17;;;13.60;99.90;;;;;;5565540;25;20244;-66
2024/04/08 06:40:42;;;;;;;8.77;2.90;;;13.70;99.90;;;;;;5565375;25;20229;-66
2024/04/08 06:43:08;;;;;;;9.97;2.77;;;13.90;99.90;;;;;;5565390;25;20221;-66
2024/04/08 06:45:36;;;;;;;7.93;2.80;;;14.00;99.90;;;;;;5565189;25;20225;-66
2024/04/08 06:48:03;;;;;;;5.53;2.90;;;14.10;99.90;;;;;;5565358;25;20213;-66
2024/04/08 06:50:34;;;;;;;7.20;2.60;;;14.20;99.90;;;;;;5565271;25;20237;-64
2024/04/08 06:53:00;;;;;;;6.82;2.80;;;14.30;99.90;;;;;;5565300;25;20271;-67
2024/04/08 06:55:28;;;;;;;6.97;3.38;;;14.40;99.90;;;;;;5565381;25;20214;-68
2024/04/08 06:57:54;;;;;;;7.10;3.55;;;14.60;99.90;;;;;;5565379;25;20221;-67
2024/04/08 07:00:24;;;;;;;4.63;3.40;;;14.60;99.90;;;;;;5565278;25;20718;-66
2024/04/08 07:02:52;;;;;;;5.70;2.92;;;14.80;99.90;;;;;;5565333;25;20221;-66
2024/04/08 07:05:18;;;;;;;8.27;2.42;;;15.00;99.90;;;;;;5565577;25;20221;-65
2024/04/08 07:07:49;;;;;;;8.00;2.58;;;15.20;99.90;;;;;;5565604;25;20268;-65
2024/04/08 07:10:15;;;;;;;4.75;2.38;;;15.40;99.90;;;;;;5565148;25;20221;-66
2024/04/08 07:12:44;;;;;;;5.78;2.88;;;15.40;99.90;;;;;;5565571;25;20255;-66
2024/04/08 07:15:10;;;;;;;5.10;2.28;;;15.50;99.90;;;;;;5565149;25;20282;-66
2024/04/08 07:17:38;;;;;;;5.88;2.40;;;15.60;99.90;;;;;;5565178;25;20691;-66
2024/04/08 07:20:05;;;;;;;8.70;2.60;;;15.70;99.90;;;;;;5565079;25;20233;-66
2024/04/08 07:22:33;;;;;;;9.40;2.95;;;15.90;99.90;;;;;;5565052;25;20228;-66
2024/04/08 07:25:03;;;;;;;5.78;3.00;;;16.10;99.90;;;;;;5565021;25;20216;-66
2024/04/08 07:27:31;;;;;;;12.77;2.72;;;16.20;99.90;;;;;;5565052;25;20213;-66
2024/04/08 07:29:57;;;;;;;6.50;2.75;;;16.30;99.90;;;;;;5564835;25;20725;-66
2024/04/08 07:32:26;;;;;;;9.75;2.85;;;16.40;99.90;;;;;;5564969;25;20205;-66
2024/04/08 07:34:52;;;;;;;9.48;3.40;;;16.50;99.90;;;;;;5565063;25;20244;-66
2024/04/08 07:37:21;;;;;;;5.05;2.47;;;16.70;99.90;;;;;;5564952;25;20273;-66
2024/04/08 07:39:46;;;;;;;4.22;2.30;;;16.80;99.90;;;;;;5564808;25;20256;-66
2024/04/08 07:42:18;;;;;;;6.18;2.90;;;17.10;99.90;;;;;;5565049;25;20217;-66
2024/04/08 07:44:44;;;;;;;3.53;2.50;;;17.20;99.90;;;;;;5564921;25;20240;-65
2024/04/08 07:47:12;;;;;;;6.22;2.78;;;17.30;99.90;;;;;;5564688;25;20233;-65
2024/04/08 07:49:39;;;;;;;6.65;2.78;;;17.60;99.90;;;;;;5564562;25;20241;-66
2024/04/08 07:52:08;;;;;;;6.88;2.63;;;17.70;99.90;;;;;;5564651;25;20367;-66
2024/04/08 07:54:34;;;;;;;7.35;2.80;;;17.80;99.90;;;;;;5564588;25;20217;-66
2024/04/08 07:57:02;;;;;;;6.18;2.42;;;17.90;99.90;;;;;;5564676;25;20255;-66
2024/04/08 07:59:31;;;;;;;7.43;2.70;;;18.10;99.90;;;;;;5564755;25;20260;-66
2024/04/08 08:01:59;;;;;;;7.55;2.70;;;18.40;99.90;;;;;;5564539;25;20213;-66
2024/04/08 08:04:25;;;;;;;5.80;2.78;;;18.60;99.90;;;;;;5564310;25;20245;-67
2024/04/08 08:06:54;;;;;;;7.15;2.63;;;18.80;99.90;;;;;;5563708;25;20336;-67
2024/04/08 08:09:22;;;;;;;7.97;3.08;;;18.90;99.90;;;;;;5564512;25;20230;-66
2024/04/08 08:11:52;;;;;;;7.45;2.53;;;19.00;99.90;;;;;;5564213;25;20600;-66
2024/04/08 08:14:21;;;;;;;4.40;2.47;;;19.20;99.90;;;;;;5564700;25;20573;-66
2024/04/08 08:16:52;;;;;;;4.95;2.33;;;19.40;99.90;;;;;;5564179;25;20247;-66
2024/04/08 08:19:18;;;;;;;4.97;2.60;;;19.70;99.90;;;;;;5564572;25;20228;-67
2024/04/08 08:21:47;;;;;;;6.70;2.38;;;19.90;99.90;;;;;;5564140;25;20256;-66
2024/04/08 08:24:15;;;;;;;6.43;2.42;;;20.00;99.90;;;;;;5564028;25;20225;-66
2024/04/08 08:26:45;;;;;;;9.90;2.60;;;20.20;99.90;;;;;;5564304;25;20248;-66
2024/04/08 08:29:13;;;;;;;5.63;2.60;;;20.30;99.90;;;;;;5563984;25;20566;-66
2024/04/08 08:31:42;;;;;;;13.00;3.00;;;20.40;99.90;;;;;;5564078;25;20221;-66
2024/04/08 08:34:10;;;;;;;7.78;2.33;;;20.60;99.90;;;;;;5564101;25;20328;-66
2024/04/08 08:36:39;;;;;;;5.82;2.20;;;20.70;99.90;;;;;;5564021;25;20210;-65
2024/04/08 08:39:05;;;;;;;9.18;2.63;;;21.00;99.90;;;;;;5564173;25;20256;-66
2024/04/08 08:41:34;;;;;;;6.00;3.08;;;21.10;99.90;;;;;;5563704;25;20217;-65
2024/04/08 08:44:02;;;;;;;11.40;3.40;;;21.20;99.90;;;;;;5564278;25;20255;-65
2024/04/08 08:46:31;;;;;;;4.82;2.20;;;21.40;99.90;;;;;;5563705;25;20213;-65
2024/04/08 08:49:00;;;;;;;6.18;2.55;;;21.60;99.90;;;;;;5563641;25;20585;-65
2024/04/08 08:51:34;;;;;;;9.65;2.95;;;21.70;99.90;;;;;;5563652;25;20316;-66
2024/04/08 08:54:00;;;;;;;7.88;2.90;;;21.90;99.90;;;;;;5563766;25;20562;-65
2024/04/08 08:56:32;;;;;;;8.65;2.97;;;22.10;99.90;;;;;;5563451;25;20247;-65
2024/04/08 08:59:01;;;;;;;5.40;2.30;;;22.20;99.90;;;;;;5563790;25;20221;-66
2024/04/08 09:01:31;;;;;;;5.65;1.70;;;22.40;99.90;;;;;;5563608;25;20302;-66
2024/04/08 09:03:57;;;;;;;7.95;2.20;;;22.40;99.90;;;;;;5563530;25;20537;-66
2024/04/08 09:06:26;;;;;;;6.35;1.90;;;22.60;99.90;;;;;;5563147;25;20752;-66
2024/04/08 09:08:54;;;;;;;6.90;2.25;;;22.80;99.90;;;;;;5563339;25;20241;-66
2024/04/08 09:11:23;;;;;;;5.65;1.73;;;23.00;99.90;;;;;;5563484;25;20706;-66
2024/04/08 09:13:50;;;;;;;6.72;2.28;;;23.30;99.90;;;;;;5563177;25;20567;-66
2024/04/08 09:16:23;;;;;;;5.03;2.08;;;23.60;99.90;;;;;;5562863;25;20213;-65
2024/04/08 09:18:49;;;;;;;8.75;2.25;;;23.70;99.90;;;;;;5566835;25;20225;-67
2024/04/08 09:21:17;;;;;;;6.72;1.85;;;24.00;99.90;;;;;;5566959;25;20221;-66
2024/04/08 09:23:46;;;;;;;6.13;1.88;;;24.10;99.90;;;;;;5566945;25;20251;-66
2024/04/08 09:26:17;;;;;;;7.13;2.05;;;24.20;99.90;;;;;;5566819;25;20268;-67
2024/04/08 09:28:43;;;;;;;6.53;2.00;;;24.40;99.90;;;;;;5566961;25;20233;-65
2024/04/08 09:31:12;;;;;;;5.60;2.35;;;24.60;99.90;;;;;;5566791;25;20248;-65
2024/04/08 09:33:38;;;;;;;4.13;1.80;;;24.90;99.90;;;;;;5566972;25;20604;-65
2024/04/08 09:36:06;;;;;;;8.82;2.15;;;25.00;99.90;;;;;;5566868;25;20224;-65
2024/04/08 09:38:33;;;;;;;8.10;2.20;;;25.00;97.90;;;;;;5566470;25;20221;-66
2024/04/08 09:41:02;;;;;;;4.10;1.63;;;25.10;96.20;;;;;;5566589;25;20218;-66
2024/04/08 09:43:31;;;;;;;5.45;2.25;;;25.30;97.30;;;;;;5566699;25;20213;-66
2024/04/08 09:46:02;;;;;;;5.78;2.22;;;25.20;94.50;;;;;;5566539;25;20213;-66
2024/04/08 09:48:30;;;;;;;4.82;1.83;;;25.50;94.10;;;;;;5566738;25;20198;-66
2024/04/08 09:51:03;;;;;;;6.60;1.92;;;25.60;93.30;;;;;;5566070;25;20217;-66
2024/04/08 09:53:32;;;;;;;5.88;1.63;;;25.80;91.90;;;;;;5566521;25;20217;-66
2024/04/08 09:56:05;;;;;;;7.22;2.42;;;25.50;91.40;;;;;;5566287;25;20316;-66
2024/04/08 09:58:39;;;;;;;7.13;2.10;;;25.70;92.60;;;;;;5566163;25;20240;-66
2024/04/08 10:01:07;;;;;;;4.45;1.73;;;26.00;93.10;;;;;;5566444;25;20209;-66
2024/04/08 10:03:42;;;;;;;9.23;2.20;;;26.30;94.70;;;;;;5566278;25;20213;-66
2024/04/08 10:06:12;;;;;;;4.50;1.60;;;26.60;93.60;;;;;;5566160;25;20213;-65
2024/04/08 10:08:39;;;;;;;5.50;1.98;;;26.70;92.70;;;;;;5566077;25;20229;-66
2024/04/08 10:11:08;;;;;;;6.57;1.88;;;27.00;87.40;;;;;;5566235;25;20243;-66
2024/04/08 10:13:47;;;;;;;8.20;1.95;;;26.90;83.00;;;;;;5565722;25;20221;-66
2024/04/08 10:16:16;;;;;;;7.15;1.85;;;27.30;75.10;;;;;;5566006;25;20252;-66
2024/04/08 10:18:51;;;;;;;5.32;1.90;;;27.40;79.60;;;;;;5565945;25;20240;-66
2024/04/08 10:21:20;;;;;;;8.13;1.80;;;27.90;74.00;;;;;;5565904;25;20308;-66
2024/04/08 10:23:47;;;;;;;7.50;2.22;;;28.20;77.30;;;;;;5565767;25;20221;-66
2024/04/08 10:26:17;;;;;;;3.85;1.92;;;28.00;69.00;;;;;;5566023;25;20583;-66
2024/04/08 10:28:43;;;;;;;4.70;1.48;;;28.20;64.40;;;;;;5565390;25;20236;-66
2024/04/08 10:31:14;;;;;;;6.18;1.75;;;28.40;75.10;;;;;;5565977;25;20229;-66
2024/04/08 10:33:40;;;;;;;4.40;1.73;;;28.50;73.10;;;;;;5565871;25;20581;-66
2024/04/08 10:36:09;;;;;;;5.90;1.58;;;28.80;79.80;;;;;;5565848;25;20628;-66
2024/04/08 10:38:36;;;;;;;4.50;1.65;;;29.10;63.70;;;;;;5565739;25;20259;-67
2024/04/08 10:41:08;;;;;;;5.75;1.75;;;29.40;62.20;;;;;;5566277;25;20217;-66
2024/04/08 10:43:37;;;;;;;5.93;2.00;;;29.60;54.80;;;;;;5566780;25;20221;-66
2024/04/08 10:46:07;;;;;;;9.02;2.25;;;29.60;47.50;;;;;;5566724;25;20224;-66
2024/04/08 10:48:39;;;;;;;5.68;2.03;;;29.00;43.80;;;;;;5566176;25;20221;-67
2024/04/08 10:51:09;;;;;;;5.30;1.60;;;28.90;46.70;;;;;;5565688;25;20201;-66
2024/04/08 10:53:38;;;;;;;5.22;1.92;;;29.20;46.60;;;;;;5565357;25;20209;-66
2024/04/08 10:56:08;;;;;;;6.05;1.60;;;28.90;42.90;;;;;;5565405;25;20221;-66
2024/04/08 10:58:33;;;;;;;8.98;1.90;;;28.70;46.50;;;;;;5565017;25;20212;-66
2024/04/08 11:01:02;;;;;;;6.88;2.10;;;28.50;38.30;;;;;;5565503;25;20212;-66
2024/04/08 11:03:28;;;;;;;7.28;1.83;;;28.60;39.20;;;;;;5565577;25;20209;-66
2024/04/08 11:06:00;;;;;;;5.78;2.00;;;29.20;43.70;;;;;;5565479;25;20264;-67
2024/04/08 11:08:27;;;;;;;4.45;1.60;;;30.20;46.30;;;;;;5565347;25;20217;-66
2024/04/08 11:10:59;;;;;;;6.63;2.05;;;30.70;49.60;;;;;;5565432;25;20709;-67
2024/04/08 11:13:25;;;;;;;6.30;2.05;;;31.00;39.80;;;;;;5565598;25;20209;-66
2024/04/08 11:15:54;;;;;;;3.42;1.50;;;31.30;33.90;;;;;;5565721;25;20217;-66
2024/04/08 11:18:20;;;;;;;4.60;1.55;;;31.30;27.20;;;;;;5565280;25;20251;-67
2024/04/08 11:20:49;;;;;;;6.75;2.42;;;31.60;41.20;;;;;;5565383;25;20212;-67
2024/04/08 11:23:20;;;;;;;6.82;1.98;;;31.90;38.80;;;;;;5565199;25;20251;-67
2024/04/08 11:25:50;;;;;;;4.35;1.83;;;32.20;36.00;;;;;;5565924;25;20204;-66
2024/04/08 11:28:16;;;;;;;6.32;1.65;;;32.30;37.30;;;;;;5565543;25;20333;-67
2024/04/08 11:30:45;;;;;;;7.20;1.80;;;32.50;26.80;;;;;;5565031;25;20578;-67
2024/04/08 11:33:11;;;;;;;5.03;2.00;;;32.80;30.30;;;;;;5564886;25;20212;-67
2024/04/08 11:35:40;;;;;;;5.75;1.98;;;33.00;27.10;;;;;;5565143;25;20224;-67
2024/04/08 11:38:09;;;;;;;4.78;1.92;;;32.80;33.30;;;;;;5565253;25;20576;-67
2024/04/08 11:40:40;;;;;;;10.10;2.10;;;32.30;26.40;;;;;;5563802;25;20240;-67
2024/04/08 11:43:06;;;;;;;5.03;1.85;;;31.90;28.50;;;;;;5565397;25;20709;-68
2024/04/08 11:45:34;;;;;;;6.85;1.92;;;31.40;27.30;;;;;;5565022;25;20250;-67
2024/04/08 11:48:00;;;;;;;13.45;2.13;;;31.40;23.70;;;;;;5564803;25;20251;-66
2024/04/08 11:50:29;;;;;;;5.55;1.95;;;31.20;23.90;;;;;;5564624;25;20587;-67
2024/04/08 11:52:55;;;;;;;5.80;1.85;;;31.60;27.20;;;;;;5564478;25;20216;-67
2024/04/08 11:55:24;;;;;;;6.38;1.80;;;31.90;19.30;;;;;;5564623;25;20224;-67
2024/04/08 11:57:53;;;;;;;4.10;1.65;;;32.30;19.80;;;;;;5564866;25;20236;-67
2024/04/08 12:00:22;;;;;;;4.13;1.50;;;31.70;21.30;;;;;;5564442;25;20228;-67
2024/04/08 12:02:48;;;;;;;7.70;1.88;;;31.60;18.40;;;;;;5564356;25;20329;-66
2024/04/08 12:05:17;;;;;;;4.53;2.00;;;30.70;19.50;;;;;;5564532;25;20232;-66
2024/04/08 12:07:43;;;;;;;4.45;1.70;;;30.80;19.20;;;;;;5564405;25;20255;-67
2024/04/08 12:10:12;;;;;;;5.97;1.90;;;31.40;17.50;;;;;;5564225;25;20260;-67
2024/04/08 12:12:38;;;;;;;6.80;2.05;;;32.00;18.00;;;;;;5564007;25;20227;-68
2024/04/08 12:15:10;;;;;;;9.65;1.85;;;31.70;19.80;;;;;;5564283;25;20581;-66
2024/04/08 12:17:36;;;;;;;8.30;2.67;;;32.20;19.30;;;;;;5564478;25;20209;-66
2024/04/08 12:20:07;;;;;;;8.55;2.53;;;31.50;16.50;;;;;;5564161;25;20262;-67
2024/04/08 12:22:33;;;;;;;8.35;2.05;;;31.30;16.50;;;;;;5564067;25;20574;-66
2024/04/08 12:25:02;;;;;;;8.88;2.15;;;31.70;20.60;;;;;;5564129;25;20254;-66
2024/04/08 12:27:30;;;;;;;8.20;1.90;;;32.00;18.90;;;;;;5564122;25;20221;-66
2024/04/08 12:29:59;;;;;;;8.32;2.33;;;31.30;13.80;;;;;;5564212;25;20721;-67
2024/04/08 12:32:27;;;;;;;9.52;2.35;;;31.60;16.40;;;;;;5563875;25;20257;-67
2024/04/08 12:34:56;;;;;;;6.95;1.55;;;31.90;20.40;;;;;;5564008;25;20624;-67
2024/04/08 12:37:22;;;;;;;8.68;1.95;;;32.30;21.20;;;;;;5563828;25;20259;-67
2024/04/08 12:39:50;;;;;;;7.53;2.38;;;32.60;20.80;;;;;;5563860;25;20233;-67
2024/04/08 12:42:16;;;;;;;6.22;1.80;;;32.50;18.20;;;;;;5563768;25;20250;-67
2024/04/08 12:44:45;;;;;;;6.13;1.63;;;32.50;18.50;;;;;;5563860;25;20212;-67
2024/04/08 12:47:11;;;;;;;8.30;2.00;;;31.90;19.40;;;;;;5563626;25;20220;-67
2024/04/08 12:49:42;;;;;;;8.65;2.17;;;31.20;17.20;;;;;;5563595;25;20282;-67